createdAt,value
2017-05-07T00:00:07.250Z,0
2017-05-07T00:01:06.928Z,0
2017-05-07T00:02:07.532Z,0
2017-05-07T00:03:06.882Z,0
2017-05-07T00:04:06.871Z,0
2017-05-07T00:05:07.470Z,0
2017-05-07T00:06:07.262Z,0
2017-05-07T00:07:06.812Z,0
2017-05-07T00:08:07.113Z,0
2017-05-07T00:09:07.083Z,0
2017-05-07T00:10:07.381Z,0
2017-05-07T00:11:07.351Z,0
2017-05-07T00:12:07.033Z,0
2017-05-07T00:13:07.004Z,0
2017-05-07T00:14:07.314Z,0
2017-05-07T00:15:07.304Z,0
2017-05-07T00:16:07.263Z,0
2017-05-07T00:17:06.945Z,0
2017-05-07T00:18:06.911Z,0
2017-05-07T00:19:07.203Z,0
2017-05-07T00:20:06.880Z,0
2017-05-07T00:21:06.958Z,0
2017-05-07T00:22:06.249Z,0
2017-05-07T00:23:06.832Z,0
2017-05-07T00:24:06.808Z,0
2017-05-07T00:25:06.492Z,0
2017-05-07T00:26:06.878Z,0
2017-05-07T00:27:07.050Z,0
2017-05-07T00:28:06.802Z,0
2017-05-07T00:29:06.732Z,0
2017-05-07T00:30:06.711Z,0
2017-05-07T00:31:06.681Z,0
2017-05-07T00:32:06.943Z,0
2017-05-07T00:33:06.968Z,0
2017-05-07T00:34:06.615Z,0
2017-05-07T00:35:06.930Z,0
2017-05-07T00:36:06.590Z,0
2017-05-07T00:37:06.308Z,0
2017-05-07T00:38:06.848Z,0
2017-05-07T00:39:06.832Z,0
2017-05-07T00:40:06.208Z,0
2017-05-07T00:41:06.213Z,0
2017-05-07T00:42:05.884Z,0
2017-05-07T00:43:06.781Z,0
2017-05-07T00:44:06.522Z,0
2017-05-07T00:45:06.410Z,0
2017-05-07T00:46:06.421Z,0
2017-05-07T00:47:06.692Z,0
2017-05-07T00:48:05.751Z,0
2017-05-07T00:49:06.108Z,0
2017-05-07T00:50:06.333Z,0
2017-05-07T00:51:05.997Z,0
2017-05-07T00:52:05.681Z,0
2017-05-07T00:53:06.041Z,0
2017-05-07T00:54:05.981Z,0
2017-05-07T00:55:05.714Z,0
2017-05-07T00:56:05.969Z,0
2017-05-07T00:57:05.971Z,0
2017-05-07T00:58:06.343Z,0
2017-05-07T00:59:06.191Z,0
2017-05-07T01:00:06.178Z,0
2017-05-07T01:01:05.504Z,0
2017-05-07T01:02:06.412Z,0
2017-05-07T01:03:06.107Z,0
2017-05-07T01:04:05.792Z,0
2017-05-07T01:05:06.103Z,0
2017-05-07T01:06:06.032Z,0
2017-05-07T01:07:06.021Z,0
2017-05-07T01:08:06.063Z,0
2017-05-07T01:09:06.294Z,0
2017-05-07T01:10:06.281Z,0
2017-05-07T01:11:05.957Z,0
2017-05-07T01:12:05.924Z,0
2017-05-07T01:13:05.979Z,0
2017-05-07T01:14:05.630Z,0
2017-05-07T01:15:05.822Z,0
2017-05-07T01:16:05.542Z,0
2017-05-07T01:17:05.549Z,0
2017-05-07T01:18:06.142Z,0
2017-05-07T01:19:05.491Z,0
2017-05-07T01:20:05.472Z,0
2017-05-07T01:21:05.470Z,0
2017-05-07T01:22:06.052Z,0
2017-05-07T01:23:05.103Z,0
2017-05-07T01:24:05.714Z,0
2017-05-07T01:25:06.004Z,0
2017-05-07T01:26:05.056Z,0
2017-05-07T01:27:05.753Z,0
2017-05-07T01:28:05.923Z,0
2017-05-07T01:29:05.646Z,0
2017-05-07T01:30:05.623Z,0
2017-05-07T01:31:05.626Z,0
2017-05-07T01:32:05.259Z,0
2017-05-07T01:33:05.575Z,0
2017-05-07T01:34:05.223Z,0
2017-05-07T01:35:04.883Z,0
2017-05-07T01:36:05.479Z,0
2017-05-07T01:37:05.149Z,0
2017-05-07T01:38:05.753Z,0
2017-05-07T01:39:05.115Z,0
2017-05-07T01:40:05.248Z,0
2017-05-07T01:41:05.071Z,0
2017-05-07T01:42:05.133Z,0
2017-05-07T01:43:05.056Z,0
2017-05-07T01:44:05.402Z,0
2017-05-07T01:45:05.615Z,0
2017-05-07T01:46:04.999Z,0
2017-05-07T01:47:04.992Z,0
2017-05-07T01:48:05.003Z,0
2017-05-07T01:49:04.965Z,0
2017-05-07T01:50:05.216Z,0
2017-05-07T01:51:04.906Z,0
2017-05-07T01:52:05.178Z,0
2017-05-07T01:53:04.867Z,0
2017-05-07T01:54:04.862Z,0
2017-05-07T01:55:05.189Z,0
2017-05-07T01:56:05.436Z,0
2017-05-07T01:57:05.115Z,0
2017-05-07T01:58:05.073Z,0
2017-05-07T01:59:04.797Z,0
2017-05-07T02:00:05.356Z,0
2017-05-07T02:01:05.006Z,0
2017-05-07T02:02:05.044Z,0
2017-05-07T02:03:04.668Z,0
2017-05-07T02:04:04.957Z,0
2017-05-07T02:05:05.278Z,0
2017-05-07T02:06:05.234Z,0
2017-05-07T02:07:04.613Z,0
2017-05-07T02:08:05.181Z,0
2017-05-07T02:09:04.927Z,0
2017-05-07T02:10:04.944Z,0
2017-05-07T02:11:04.206Z,0
2017-05-07T02:12:04.493Z,0
2017-05-07T02:13:05.110Z,0
2017-05-07T02:14:05.072Z,0
2017-05-07T02:15:04.464Z,0
2017-05-07T02:16:04.733Z,0
2017-05-07T02:17:04.703Z,0
2017-05-07T02:18:05.011Z,0
2017-05-07T02:19:04.985Z,0
2017-05-07T02:20:04.361Z,0
2017-05-07T02:21:04.382Z,0
2017-05-07T02:22:04.924Z,0
2017-05-07T02:23:04.346Z,0
2017-05-07T02:24:04.371Z,0
2017-05-07T02:25:04.573Z,0
2017-05-07T02:26:04.553Z,0
2017-05-07T02:27:04.836Z,0
2017-05-07T02:28:04.819Z,0
2017-05-07T02:29:04.568Z,0
2017-05-07T02:30:03.545Z,0
2017-05-07T02:31:03.863Z,0
2017-05-07T02:32:04.429Z,0
2017-05-07T02:33:03.915Z,0
2017-05-07T02:34:03.768Z,0
2017-05-07T02:35:03.769Z,0
2017-05-07T02:36:04.055Z,0
2017-05-07T02:37:04.042Z,0
2017-05-07T02:38:04.374Z,0
2017-05-07T02:39:03.996Z,0
2017-05-07T02:40:04.592Z,0
2017-05-07T02:41:04.286Z,0
2017-05-07T02:42:04.553Z,0
2017-05-07T02:43:04.524Z,0
2017-05-07T02:44:04.039Z,0
2017-05-07T02:45:03.916Z,0
2017-05-07T02:46:04.144Z,0
2017-05-07T02:47:03.854Z,0
2017-05-07T02:48:03.823Z,0
2017-05-07T02:49:04.409Z,0
2017-05-07T02:50:04.116Z,0
2017-05-07T02:51:03.756Z,0
2017-05-07T02:52:04.379Z,0
2017-05-07T02:53:04.083Z,0
2017-05-07T02:54:03.752Z,0
2017-05-07T02:55:04.045Z,0
2017-05-07T02:56:04.281Z,0
2017-05-07T02:57:03.041Z,0
2017-05-07T02:58:03.643Z,0
2017-05-07T02:59:03.924Z,0
2017-05-07T03:00:03.893Z,0
2017-05-07T03:01:03.575Z,0
2017-05-07T03:02:04.155Z,0
2017-05-07T03:03:03.856Z,0
2017-05-07T03:04:02.892Z,0
2017-05-07T03:05:03.481Z,0
2017-05-07T03:06:03.465Z,0
2017-05-07T03:07:03.853Z,0
2017-05-07T03:08:03.762Z,0
2017-05-07T03:09:04.075Z,0
2017-05-07T03:10:03.714Z,0
2017-05-07T03:11:03.375Z,0
2017-05-07T03:12:03.972Z,0
2017-05-07T03:13:03.675Z,0
2017-05-07T03:14:03.986Z,0
2017-05-07T03:15:03.663Z,0
2017-05-07T03:16:03.894Z,0
2017-05-07T03:17:03.582Z,0
2017-05-07T03:18:02.988Z,0
2017-05-07T03:19:03.884Z,0
2017-05-07T03:20:03.523Z,0
2017-05-07T03:21:03.546Z,0
2017-05-07T03:22:03.784Z,0
2017-05-07T03:23:03.163Z,0
2017-05-07T03:24:02.583Z,0
2017-05-07T03:25:03.722Z,0
2017-05-07T03:26:03.076Z,0
2017-05-07T03:27:02.776Z,0
2017-05-07T03:28:03.413Z,0
2017-05-07T03:29:03.662Z,0
2017-05-07T03:30:03.072Z,0
2017-05-07T03:31:03.005Z,0
2017-05-07T03:32:03.045Z,0
2017-05-07T03:33:03.591Z,0
2017-05-07T03:34:03.548Z,0
2017-05-07T03:35:02.947Z,0
2017-05-07T03:36:02.601Z,0
2017-05-07T03:37:03.195Z,0
2017-05-07T03:38:02.904Z,0
2017-05-07T03:39:02.853Z,0
2017-05-07T03:40:03.430Z,0
2017-05-07T03:41:02.912Z,0
2017-05-07T03:42:03.071Z,0
2017-05-07T03:43:03.369Z,0
2017-05-07T03:44:03.061Z,0
2017-05-07T03:45:03.052Z,0
2017-05-07T03:46:02.409Z,0
2017-05-07T03:47:02.686Z,0
2017-05-07T03:48:02.994Z,0
2017-05-07T03:49:02.658Z,0
2017-05-07T03:50:02.327Z,0
2017-05-07T03:51:02.653Z,0
2017-05-07T03:52:02.892Z,0
2017-05-07T03:53:02.892Z,0
2017-05-07T03:54:02.902Z,5
2017-05-07T03:55:02.853Z,5
2017-05-07T03:56:02.515Z,5
2017-05-07T03:57:02.824Z,5
2017-05-07T03:58:02.496Z,5
2017-05-07T03:59:02.473Z,5
2017-05-07T04:00:02.511Z,5
2017-05-07T04:01:02.733Z,5
2017-05-07T04:02:02.402Z,5
2017-05-07T04:03:02.703Z,5
2017-05-07T04:04:02.695Z,10
2017-05-07T04:05:02.679Z,10
2017-05-07T04:06:02.374Z,10
2017-05-07T04:07:02.604Z,10
2017-05-07T04:08:02.593Z,10
2017-05-07T04:09:02.866Z,10
2017-05-07T04:10:02.612Z,10
2017-05-07T04:11:02.232Z,10
2017-05-07T04:12:02.534Z,10
2017-05-07T04:13:02.524Z,15
2017-05-07T04:14:02.522Z,15
2017-05-07T04:15:02.464Z,15
2017-05-07T04:16:02.123Z,15
2017-05-07T04:17:02.471Z,15
2017-05-07T04:18:02.403Z,15
2017-05-07T04:19:02.483Z,20
2017-05-07T04:20:02.663Z,20
2017-05-07T04:21:01.717Z,20
2017-05-07T04:22:02.311Z,20
2017-05-07T04:23:02.345Z,25
2017-05-07T04:24:02.583Z,25
2017-05-07T04:25:02.261Z,25
2017-05-07T04:26:02.550Z,25
2017-05-07T04:27:02.267Z,25
2017-05-07T04:28:01.591Z,30
2017-05-07T04:29:02.243Z,30
2017-05-07T04:30:02.173Z,30
2017-05-07T04:31:02.152Z,30
2017-05-07T04:32:02.429Z,30
2017-05-07T04:33:02.163Z,35
2017-05-07T04:34:02.185Z,35
2017-05-07T04:35:01.165Z,35
2017-05-07T04:36:01.752Z,35
2017-05-07T04:37:02.325Z,35
2017-05-07T04:38:02.333Z,35
2017-05-07T04:39:02.014Z,35
2017-05-07T04:40:01.722Z,35
2017-05-07T04:41:01.327Z,40
2017-05-07T04:42:01.932Z,35
2017-05-07T04:43:02.223Z,40
2017-05-07T04:44:01.893Z,35
2017-05-07T04:45:02.233Z,40
2017-05-07T04:46:02.184Z,40
2017-05-07T04:47:01.534Z,40
2017-05-07T04:48:01.512Z,40
2017-05-07T04:49:02.127Z,40
2017-05-07T04:50:01.777Z,40
2017-05-07T04:51:01.162Z,40
2017-05-07T04:52:01.445Z,45
2017-05-07T04:53:01.725Z,45
2017-05-07T04:54:01.433Z,45
2017-05-07T04:55:01.691Z,45
2017-05-07T04:56:01.973Z,50
2017-05-07T04:57:01.687Z,50
2017-05-07T04:58:01.928Z,55
2017-05-07T04:59:01.679Z,55
2017-05-07T05:00:01.594Z,55
2017-05-07T05:01:01.571Z,60
2017-05-07T05:02:01.580Z,60
2017-05-07T05:03:01.242Z,60
2017-05-07T05:04:01.362Z,60
2017-05-07T05:05:01.502Z,60
2017-05-07T05:06:01.182Z,60
2017-05-07T05:07:01.460Z,55
2017-05-07T05:08:01.135Z,60
2017-05-07T05:09:01.124Z,60
2017-05-07T05:10:00.890Z,65
2017-05-07T05:11:01.084Z,70
2017-05-07T05:12:01.663Z,70
2017-05-07T05:13:01.651Z,70
2017-05-07T05:14:00.718Z,70
2017-05-07T05:15:01.373Z,70
2017-05-07T05:16:01.294Z,75
2017-05-07T05:17:01.278Z,75
2017-05-07T05:18:01.255Z,75
2017-05-07T05:19:01.541Z,70
2017-05-07T05:20:01.541Z,70
2017-05-07T05:21:01.235Z,70
2017-05-07T05:22:01.472Z,70
2017-05-07T05:23:00.852Z,70
2017-05-07T05:24:00.854Z,75
2017-05-07T05:25:00.345Z,80
2017-05-07T05:26:01.413Z,80
2017-05-07T05:27:01.102Z,80
2017-05-07T05:28:00.147Z,80
2017-05-07T05:29:01.374Z,80
2017-05-07T05:30:00.733Z,80
2017-05-07T05:31:01.318Z,80
2017-05-07T05:32:01.012Z,75
2017-05-07T05:33:00.961Z,75
2017-05-07T05:34:01.275Z,75
2017-05-07T05:35:01.000Z,70
2017-05-07T05:36:00.622Z,60
2017-05-07T05:37:00.294Z,65
2017-05-07T05:38:00.580Z,70
2017-05-07T05:39:00.863Z,70
2017-05-07T05:40:00.838Z,70
2017-05-07T05:41:00.514Z,60
2017-05-07T05:41:59.881Z,60
2017-05-07T05:43:00.832Z,70
2017-05-07T05:44:00.952Z,60
2017-05-07T05:45:00.472Z,55
2017-05-07T05:46:00.455Z,55
2017-05-07T05:47:00.412Z,55
2017-05-07T05:48:00.411Z,60
2017-05-07T05:49:00.821Z,60
2017-05-07T05:50:00.348Z,60
2017-05-07T05:51:00.358Z,55
2017-05-07T05:52:00.342Z,60
2017-05-07T05:53:00.293Z,55
2017-05-07T05:54:00.602Z,50
2017-05-07T05:55:00.279Z,50
2017-05-07T05:56:00.553Z,50
2017-05-07T05:57:00.529Z,55
2017-05-07T05:58:00.571Z,60
2017-05-07T05:59:00.812Z,60
2017-05-07T06:00:00.925Z,75
2017-05-07T06:01:00.201Z,75
2017-05-07T06:02:00.135Z,75
2017-05-07T06:02:59.950Z,75
2017-05-07T06:04:00.106Z,80
2017-05-07T06:05:00.210Z,90
2017-05-07T06:06:00.562Z,90
2017-05-07T06:07:00.407Z,95
2017-05-07T06:08:00.077Z,90
2017-05-07T06:09:00.353Z,95
2017-05-07T06:09:59.712Z,85
2017-05-07T06:11:00.332Z,95
2017-05-07T06:11:59.988Z,100
2017-05-07T06:12:59.644Z,100
2017-05-07T06:14:00.285Z,95
2017-05-07T06:15:00.311Z,105
2017-05-07T06:16:00.229Z,120
2017-05-07T06:17:00.182Z,105
2017-05-07T06:18:00.190Z,95
2017-05-07T06:19:00.182Z,85
2017-05-07T06:20:00.417Z,90
2017-05-07T06:21:00.197Z,85
2017-05-07T06:22:00.502Z,80
2017-05-07T06:23:00.055Z,75
2017-05-07T06:24:00.470Z,70
2017-05-07T06:24:59.393Z,80
2017-05-07T06:26:00.300Z,80
2017-05-07T06:27:00.309Z,75
2017-05-07T06:27:59.649Z,70
2017-05-07T06:29:00.324Z,65
2017-05-07T06:30:00.273Z,60
2017-05-07T06:31:00.323Z,60
2017-05-07T06:31:59.585Z,55
2017-05-07T06:33:00.247Z,50
2017-05-07T06:34:00.186Z,55
2017-05-07T06:35:00.141Z,55
2017-05-07T06:36:00.113Z,55
2017-05-07T06:37:00.189Z,55
2017-05-07T06:38:00.109Z,60
2017-05-07T06:38:59.748Z,60
2017-05-07T06:39:59.252Z,65
2017-05-07T06:40:59.736Z,85
2017-05-07T06:41:59.713Z,80
2017-05-07T06:42:59.370Z,80
2017-05-07T06:43:59.421Z,90
2017-05-07T06:44:59.652Z,95
2017-05-07T06:45:59.749Z,75
2017-05-07T06:46:59.720Z,60
2017-05-07T06:47:59.083Z,65
2017-05-07T06:48:59.575Z,65
2017-05-07T06:49:59.926Z,65
2017-05-07T06:50:59.554Z,70
2017-05-07T06:51:59.899Z,80
2017-05-07T06:52:59.503Z,90
2017-05-07T06:53:59.536Z,85
2017-05-07T06:54:59.467Z,85
2017-05-07T06:55:59.545Z,85
2017-05-07T06:56:59.448Z,85
2017-05-07T06:57:58.863Z,80
2017-05-07T06:58:59.093Z,85
2017-05-07T06:59:59.093Z,80
2017-05-07T07:00:59.043Z,80
2017-05-07T07:01:59.412Z,80
2017-05-07T07:02:59.013Z,80
2017-05-07T07:03:58.792Z,90
2017-05-07T07:04:58.767Z,90
2017-05-07T07:05:59.307Z,90
2017-05-07T07:06:59.258Z,85
2017-05-07T07:07:58.943Z,80
2017-05-07T07:08:59.224Z,80
2017-05-07T07:09:59.278Z,80
2017-05-07T07:10:58.902Z,80
2017-05-07T07:11:59.195Z,80
2017-05-07T07:12:58.852Z,80
2017-05-07T07:13:59.466Z,80
2017-05-07T07:14:59.225Z,80
2017-05-07T07:15:58.191Z,85
2017-05-07T07:16:58.893Z,80
2017-05-07T07:17:58.754Z,85
2017-05-07T07:18:59.093Z,85
2017-05-07T07:19:59.094Z,90
2017-05-07T07:20:59.053Z,100
2017-05-07T07:21:58.813Z,110
2017-05-07T07:22:58.993Z,120
2017-05-07T07:23:58.964Z,115
2017-05-07T07:24:58.702Z,115
2017-05-07T07:25:59.293Z,110
2017-05-07T07:26:58.604Z,120
2017-05-07T07:27:58.598Z,110
2017-05-07T07:28:58.922Z,100
2017-05-07T07:29:58.840Z,105
2017-05-07T07:30:58.528Z,105
2017-05-07T07:31:58.818Z,105
2017-05-07T07:32:58.495Z,105
2017-05-07T07:33:58.217Z,105
2017-05-07T07:34:58.783Z,105
2017-05-07T07:35:59.103Z,95
2017-05-07T07:36:59.142Z,85
2017-05-07T07:37:58.821Z,70
2017-05-07T07:38:58.209Z,70
2017-05-07T07:39:58.705Z,65
2017-05-07T07:40:58.408Z,65
2017-05-07T07:41:58.663Z,60
2017-05-07T07:42:58.954Z,65
2017-05-07T07:43:58.609Z,65
2017-05-07T07:44:58.632Z,65
2017-05-07T07:45:58.562Z,65
2017-05-07T07:46:57.990Z,65
2017-05-07T07:47:58.855Z,65
2017-05-07T07:48:58.891Z,70
2017-05-07T07:49:58.924Z,70
2017-05-07T07:50:58.182Z,80
2017-05-07T07:51:58.481Z,85
2017-05-07T07:52:58.153Z,90
2017-05-07T07:53:58.543Z,90
2017-05-07T07:54:58.099Z,95
2017-05-07T07:55:58.728Z,100
2017-05-07T07:56:58.063Z,105
2017-05-07T07:57:58.376Z,110
2017-05-07T07:58:58.653Z,110
2017-05-07T07:59:58.796Z,115
2017-05-07T08:00:58.312Z,115
2017-05-07T08:01:58.302Z,115
2017-05-07T08:02:58.282Z,120
2017-05-07T08:03:58.255Z,115
2017-05-07T08:04:57.632Z,115
2017-05-07T08:05:58.571Z,115
2017-05-07T08:06:58.224Z,120
2017-05-07T08:07:58.212Z,120
2017-05-07T08:08:58.172Z,115
2017-05-07T08:09:58.220Z,120
2017-05-07T08:10:57.543Z,120
2017-05-07T08:11:58.123Z,130
2017-05-07T08:12:57.804Z,135
2017-05-07T08:13:57.804Z,130
2017-05-07T08:14:58.503Z,130
2017-05-07T08:15:58.478Z,145
2017-05-07T08:16:58.055Z,150
2017-05-07T08:17:57.734Z,150
2017-05-07T08:18:57.992Z,155
2017-05-07T08:19:57.982Z,155
2017-05-07T08:20:57.763Z,155
2017-05-07T08:21:57.971Z,160
2017-05-07T08:22:57.644Z,165
2017-05-07T08:23:57.616Z,165
2017-05-07T08:24:57.897Z,165
2017-05-07T08:25:57.914Z,165
2017-05-07T08:26:58.251Z,165
2017-05-07T08:27:58.240Z,160
2017-05-07T08:28:57.854Z,150
2017-05-07T08:29:57.854Z,145
2017-05-07T08:30:57.842Z,135
2017-05-07T08:31:58.155Z,135
2017-05-07T08:32:57.810Z,140
2017-05-07T08:33:58.138Z,145
2017-05-07T08:34:56.835Z,135
2017-05-07T08:35:57.718Z,135
2017-05-07T08:36:58.034Z,140
2017-05-07T08:37:57.716Z,135
2017-05-07T08:38:57.692Z,125
2017-05-07T08:39:57.675Z,130
2017-05-07T08:40:57.994Z,130
2017-05-07T08:41:57.983Z,135
2017-05-07T08:42:57.930Z,150
2017-05-07T08:43:57.973Z,145
2017-05-07T08:44:57.901Z,135
2017-05-07T08:45:57.884Z,130
2017-05-07T08:46:57.884Z,145
2017-05-07T08:47:57.545Z,140
2017-05-07T08:48:57.834Z,140
2017-05-07T08:49:57.224Z,135
2017-05-07T08:50:57.814Z,125
2017-05-07T08:51:57.814Z,125
2017-05-07T08:52:57.785Z,125
2017-05-07T08:53:57.804Z,135
2017-05-07T08:54:57.750Z,140
2017-05-07T08:55:57.093Z,145
2017-05-07T08:56:57.193Z,150
2017-05-07T08:57:57.693Z,155
2017-05-07T08:58:57.690Z,145
2017-05-07T08:59:57.655Z,130
2017-05-07T09:00:57.339Z,120
2017-05-07T09:01:56.782Z,125
2017-05-07T09:02:57.313Z,135
2017-05-07T09:03:57.340Z,125
2017-05-07T09:04:57.252Z,120
2017-05-07T09:05:57.572Z,120
2017-05-07T09:06:57.528Z,120
2017-05-07T09:07:56.660Z,120
2017-05-07T09:08:57.505Z,115
2017-05-07T09:09:57.162Z,115
2017-05-07T09:10:56.882Z,115
2017-05-07T09:11:56.840Z,115
2017-05-07T09:12:57.123Z,115
2017-05-07T09:13:56.831Z,115
2017-05-07T09:14:57.405Z,120
2017-05-07T09:15:57.093Z,120
2017-05-07T09:16:57.147Z,115
2017-05-07T09:17:56.748Z,120
2017-05-07T09:18:56.733Z,135
2017-05-07T09:19:56.714Z,135
2017-05-07T09:20:57.323Z,140
2017-05-07T09:21:57.069Z,135
2017-05-07T09:22:56.972Z,140
2017-05-07T09:23:56.943Z,130
2017-05-07T09:24:56.692Z,115
2017-05-07T09:25:57.232Z,125
2017-05-07T09:26:57.206Z,120
2017-05-07T09:27:56.665Z,120
2017-05-07T09:28:56.573Z,135
2017-05-07T09:29:56.566Z,160
2017-05-07T09:30:56.877Z,175
2017-05-07T09:31:56.903Z,230
2017-05-07T09:32:56.563Z,195
2017-05-07T09:33:56.935Z,200
2017-05-07T09:34:56.845Z,205
2017-05-07T09:35:56.790Z,195
2017-05-07T09:36:56.801Z,245
2017-05-07T09:37:57.041Z,330
2017-05-07T09:38:56.801Z,390
2017-05-07T09:39:56.682Z,350
2017-05-07T09:40:56.683Z,260
2017-05-07T09:41:56.673Z,335
2017-05-07T09:42:56.347Z,320
2017-05-07T09:43:56.652Z,310
2017-05-07T09:44:56.653Z,740
2017-05-07T09:45:56.649Z,590
2017-05-07T09:46:56.916Z,435
2017-05-07T09:47:56.571Z,520
2017-05-07T09:48:56.883Z,365
2017-05-07T09:49:56.263Z,495
2017-05-07T09:50:56.621Z,355
2017-05-07T09:51:56.913Z,525
2017-05-07T09:52:56.204Z,365
2017-05-07T09:53:56.833Z,330
2017-05-07T09:54:56.525Z,375
2017-05-07T09:55:56.501Z,265
2017-05-07T09:56:56.904Z,425
2017-05-07T09:57:56.791Z,615
2017-05-07T09:58:56.761Z,520
2017-05-07T09:59:56.108Z,495
2017-05-07T10:00:56.812Z,350
2017-05-07T10:01:56.733Z,470
2017-05-07T10:02:56.470Z,540
2017-05-07T10:03:56.723Z,355
2017-05-07T10:04:56.470Z,355
2017-05-07T10:05:56.052Z,355
2017-05-07T10:06:56.043Z,370
2017-05-07T10:07:55.718Z,355
2017-05-07T10:08:56.686Z,345
2017-05-07T10:09:56.004Z,360
2017-05-07T10:10:56.299Z,320
2017-05-07T10:11:56.592Z,305
2017-05-07T10:12:55.982Z,290
2017-05-07T10:13:56.281Z,260
2017-05-07T10:14:56.602Z,240
2017-05-07T10:15:55.926Z,240
2017-05-07T10:16:56.231Z,265
2017-05-07T10:17:56.221Z,340
2017-05-07T10:18:56.202Z,260
2017-05-07T10:19:56.191Z,230
2017-05-07T10:20:56.481Z,210
2017-05-07T10:21:55.916Z,200
2017-05-07T10:22:55.876Z,200
2017-05-07T10:23:56.133Z,200
2017-05-07T10:24:56.452Z,200
2017-05-07T10:25:55.821Z,195
2017-05-07T10:26:56.432Z,200
2017-05-07T10:27:56.433Z,205
2017-05-07T10:28:56.081Z,205
2017-05-07T10:29:55.807Z,215
2017-05-07T10:30:56.041Z,230
2017-05-07T10:31:56.347Z,260
2017-05-07T10:32:55.704Z,260
2017-05-07T10:33:55.991Z,295
2017-05-07T10:34:56.313Z,240
2017-05-07T10:35:55.992Z,245
2017-05-07T10:36:55.971Z,245
2017-05-07T10:37:55.963Z,235
2017-05-07T10:38:55.954Z,250
2017-05-07T10:39:55.922Z,280
2017-05-07T10:40:55.608Z,250
2017-05-07T10:41:56.210Z,245
2017-05-07T10:42:55.924Z,275
2017-05-07T10:43:55.591Z,275
2017-05-07T10:44:56.184Z,280
2017-05-07T10:45:55.622Z,305
2017-05-07T10:46:55.948Z,295
2017-05-07T10:47:55.579Z,325
2017-05-07T10:48:55.830Z,300
2017-05-07T10:49:55.891Z,280
2017-05-07T10:50:55.484Z,265
2017-05-07T10:51:55.508Z,255
2017-05-07T10:52:56.085Z,350
2017-05-07T10:53:55.782Z,370
2017-05-07T10:54:55.487Z,300
2017-05-07T10:55:55.742Z,265
2017-05-07T10:56:55.423Z,270
2017-05-07T10:57:55.746Z,310
2017-05-07T10:58:55.694Z,365
2017-05-07T10:59:56.084Z,380
2017-05-07T11:00:55.993Z,390
2017-05-07T11:01:56.066Z,410
2017-05-07T11:02:55.986Z,425
2017-05-07T11:03:55.955Z,425
2017-05-07T11:04:55.633Z,425
2017-05-07T11:05:55.651Z,430
2017-05-07T11:06:55.343Z,385
2017-05-07T11:07:55.954Z,375
2017-05-07T11:08:55.647Z,410
2017-05-07T11:09:55.368Z,365
2017-05-07T11:10:55.376Z,385
2017-05-07T11:11:55.929Z,350
2017-05-07T11:12:55.256Z,360
2017-05-07T11:13:55.525Z,340
2017-05-07T11:14:55.832Z,380
2017-05-07T11:15:55.928Z,365
2017-05-07T11:16:55.585Z,300
2017-05-07T11:17:55.667Z,230
2017-05-07T11:18:55.500Z,210
2017-05-07T11:19:55.498Z,205
2017-05-07T11:20:55.459Z,195
2017-05-07T11:21:55.361Z,190
2017-05-07T11:22:55.779Z,190
2017-05-07T11:23:55.824Z,195
2017-05-07T11:24:55.773Z,200
2017-05-07T11:25:55.556Z,195
2017-05-07T11:26:55.818Z,190
2017-05-07T11:27:55.381Z,190
2017-05-07T11:28:55.396Z,190
2017-05-07T11:29:55.464Z,200
2017-05-07T11:30:55.108Z,220
2017-05-07T11:31:55.361Z,275
2017-05-07T11:32:55.745Z,320
2017-05-07T11:33:55.343Z,315
2017-05-07T11:34:55.648Z,290
2017-05-07T11:35:55.621Z,250
2017-05-07T11:36:55.651Z,200
2017-05-07T11:37:55.587Z,195
2017-05-07T11:38:55.595Z,190
2017-05-07T11:39:55.566Z,200
2017-05-07T11:40:55.565Z,200
2017-05-07T11:41:55.260Z,195
2017-05-07T11:42:55.530Z,195
2017-05-07T11:43:55.528Z,190
2017-05-07T11:44:55.506Z,190
2017-05-07T11:45:55.505Z,190
2017-05-07T11:46:55.189Z,190
2017-05-07T11:47:55.500Z,200
2017-05-07T11:48:55.511Z,215
2017-05-07T11:49:54.666Z,230
2017-05-07T11:50:55.469Z,230
2017-05-07T11:51:55.190Z,215
2017-05-07T11:52:55.421Z,215
2017-05-07T11:53:55.136Z,220
2017-05-07T11:54:55.397Z,270
2017-05-07T11:55:55.401Z,245
2017-05-07T11:56:55.366Z,240
2017-05-07T11:57:55.373Z,230
2017-05-07T11:58:55.608Z,230
2017-05-07T11:59:55.363Z,230
2017-05-07T12:00:55.481Z,225
2017-05-07T12:01:55.362Z,220
2017-05-07T12:02:55.327Z,215
2017-05-07T12:03:55.462Z,215
2017-05-07T12:04:54.693Z,225
2017-05-07T12:05:54.951Z,225
2017-05-07T12:06:54.956Z,220
2017-05-07T12:07:55.340Z,210
2017-05-07T12:08:54.930Z,205
2017-05-07T12:09:54.987Z,190
2017-05-07T12:10:54.890Z,180
2017-05-07T12:11:55.311Z,160
2017-05-07T12:12:55.304Z,155
2017-05-07T12:13:54.882Z,150
2017-05-07T12:14:54.851Z,145
2017-05-07T12:15:54.860Z,145
2017-05-07T12:16:55.146Z,145
2017-05-07T12:17:55.242Z,140
2017-05-07T12:18:54.311Z,140
2017-05-07T12:19:54.805Z,145
2017-05-07T12:20:54.879Z,140
2017-05-07T12:21:54.465Z,140
2017-05-07T12:22:55.105Z,135
2017-05-07T12:23:54.125Z,135
2017-05-07T12:24:55.181Z,135
2017-05-07T12:25:55.052Z,135
2017-05-07T12:26:55.029Z,135
2017-05-07T12:27:55.011Z,140
2017-05-07T12:28:55.022Z,150
2017-05-07T12:29:55.031Z,160
2017-05-07T12:30:54.962Z,175
2017-05-07T12:31:54.347Z,185
2017-05-07T12:32:54.414Z,190
2017-05-07T12:33:54.968Z,185
2017-05-07T12:34:54.399Z,190
2017-05-07T12:35:54.887Z,190
2017-05-07T12:36:54.890Z,190
2017-05-07T12:37:54.265Z,195
2017-05-07T12:38:54.931Z,195
2017-05-07T12:39:54.242Z,185
2017-05-07T12:40:54.228Z,180
2017-05-07T12:41:54.532Z,175
2017-05-07T12:42:54.191Z,165
2017-05-07T12:43:54.491Z,160
2017-05-07T12:44:54.167Z,160
2017-05-07T12:45:54.469Z,160
2017-05-07T12:46:54.150Z,160
2017-05-07T12:47:53.809Z,155
2017-05-07T12:48:54.453Z,155
2017-05-07T12:49:54.196Z,155
2017-05-07T12:50:54.421Z,155
2017-05-07T12:51:54.383Z,155
2017-05-07T12:52:54.365Z,155
2017-05-07T12:53:54.670Z,155
2017-05-07T12:54:54.038Z,155
2017-05-07T12:55:54.351Z,155
2017-05-07T12:56:54.038Z,155
2017-05-07T12:57:54.616Z,150
2017-05-07T12:58:53.983Z,150
2017-05-07T12:59:54.286Z,145
2017-05-07T13:00:54.560Z,145
2017-05-07T13:01:54.576Z,145
2017-05-07T13:02:54.553Z,145
2017-05-07T13:03:54.535Z,145
2017-05-07T13:04:54.533Z,145
2017-05-07T13:05:53.922Z,145
2017-05-07T13:06:54.510Z,145
2017-05-07T13:07:53.852Z,145
2017-05-07T13:08:54.493Z,145
2017-05-07T13:09:54.443Z,145
2017-05-07T13:10:53.816Z,145
2017-05-07T13:11:54.133Z,150
2017-05-07T13:12:54.109Z,150
2017-05-07T13:13:54.122Z,150
2017-05-07T13:14:54.393Z,155
2017-05-07T13:15:54.452Z,155
2017-05-07T13:16:54.123Z,155
2017-05-07T13:17:54.562Z,155
2017-05-07T13:18:54.361Z,155
2017-05-07T13:19:53.722Z,160
2017-05-07T13:20:54.452Z,160
2017-05-07T13:21:54.340Z,160
2017-05-07T13:22:53.684Z,165
2017-05-07T13:23:54.360Z,175
2017-05-07T13:24:54.011Z,165
2017-05-07T13:25:54.257Z,165
2017-05-07T13:26:53.943Z,165
2017-05-07T13:27:54.305Z,165
2017-05-07T13:28:54.238Z,170
2017-05-07T13:29:53.641Z,165
2017-05-07T13:30:53.882Z,160
2017-05-07T13:31:53.891Z,160
2017-05-07T13:32:54.162Z,160
2017-05-07T13:33:54.243Z,160
2017-05-07T13:34:53.832Z,160
2017-05-07T13:35:53.822Z,160
2017-05-07T13:36:53.187Z,160
2017-05-07T13:37:53.540Z,160
2017-05-07T13:38:53.810Z,160
2017-05-07T13:39:54.193Z,155
2017-05-07T13:40:53.266Z,150
2017-05-07T13:41:53.505Z,145
2017-05-07T13:42:53.491Z,145
2017-05-07T13:43:53.755Z,145
2017-05-07T13:44:54.083Z,140
2017-05-07T13:45:53.722Z,140
2017-05-07T13:46:54.108Z,135
2017-05-07T13:47:54.051Z,120
2017-05-07T13:48:54.076Z,110
2017-05-07T13:49:53.969Z,105
2017-05-07T13:50:53.985Z,105
2017-05-07T13:51:53.371Z,105
2017-05-07T13:52:53.927Z,105
2017-05-07T13:53:53.892Z,110
2017-05-07T13:54:53.646Z,115
2017-05-07T13:55:53.317Z,115
2017-05-07T13:56:53.274Z,115
2017-05-07T13:57:53.568Z,115
2017-05-07T13:58:53.556Z,115
2017-05-07T13:59:53.843Z,115
2017-05-07T14:00:53.508Z,120
2017-05-07T14:01:53.203Z,120
2017-05-07T14:02:53.492Z,120
2017-05-07T14:03:53.481Z,130
2017-05-07T14:04:53.778Z,135
2017-05-07T14:05:53.456Z,135
2017-05-07T14:06:53.145Z,140
2017-05-07T14:07:53.713Z,140
2017-05-07T14:08:53.134Z,160
2017-05-07T14:09:53.726Z,165